Portada
METAR-TAF:

METAR-TAF

Aeroports :

Illa Christmas, Austràlia

latitud: 10-26S, longitud: 105-41E, altitud: 279 m

Observació

L'informe es va fer fa 24 minuts, a les 13:00 UTC
Vent 9 kt del Est
Temperatura 26°C
Humitat 89%
Pressió 1012 hPa
Visibilitat 10 km o més
Cel ennuvolat a una alçada de 1200 ft

METAR: YPXM 141300Z AUTO 10009KT 9999 // BKN012 26/24 Q1012 RF00.0/000.0

Hora: 20:24 (13:24 UTC)

Pronòstic

L'informe es va fer fa 2 hores i 19 minuts, a les 11:05 UTC
Pronòstic vàlid del 14 a les 12 UTC al 15 a les 12 UTC
Vent 12 kt del Est
Visibilitat 10 km o més
Cel ennuvolat a una alçada de 1400 ft
A partir de les 15 a les 0200 UTC
Vent 14 kt del Est/Sud-Est
Visibilitat 10 km o més
Cel ennuvolat a una alçada de 1600 ft

TAF: YPXM 141105Z 1412/1512 10012KT 9999 BKN014 FM150200 11014KT 9999 BKN016

Observacions i pronòstics meteorològics de més de 4000 aeroports (METAR i TAF).

Les estacions disponibles són els punts grocs i vermells al mapa.

Posi el ratolí al punt desitjat per veure el nom de l'estació.

Feu clic per veure les observacions i els pronòstics meteorològics.

Per canviar el mapa: feu clic els botons verds amb una creu de color negre per apropar; al botó verd amb un guió per allunyar la imatge; o en les fletxes verdes per a mapes adjacents.


METAR-TAF: